Time;durP1;ratioP1;P1;durP2;ratioP2;P2;SDS_P1;SDS_P2;PMS_P1;PMS_P2;Temp;Humidity;BMP_temperature;BMP_pressure;BME280_temperature;BME280_humidity;BME280_pressure;Samples;Min_cycle;Max_cycle;Signal;HPM_P1;HPM_P2
2023/02/08 00:01:54;;;;;;;65.85;34.00;;;;;;;;;;5056158;28;20104;-74
2023/02/08 00:04:40;;;;;;;68.30;34.30;;;;;;;;;;5056394;28;20029;-73
2023/02/08 00:07:25;;;;;;;64.55;33.95;;;;;;;;;;5054722;28;20357;-74
2023/02/08 00:10:11;;;;;;;65.47;33.92;;;;;;;;;;5060236;28;20017;-75
2023/02/08 00:12:56;;;;;;;62.60;33.42;;;;;;;;;;5068364;28;19997;-74
2023/02/08 00:15:43;;;;;;;63.35;33.60;;;;;;;;;;5055580;28;20029;-72
2023/02/08 00:18:29;;;;;;;70.68;35.80;;;;;;;;;;5055495;28;20032;-73
2023/02/08 00:21:16;;;;;;;66.55;34.42;;;;;;;;;;5054907;28;20102;-75
2023/02/08 00:24:01;;;;;;;66.10;33.58;;;;;;;;;;5054888;28;20504;-73
2023/02/08 00:26:47;;;;;;;62.47;34.35;;;;;;;;;;5056062;28;20101;-72
2023/02/08 00:29:32;;;;;;;64.20;32.85;;;;;;;;;;5054578;28;20342;-73
2023/02/08 00:32:18;;;;;;;62.78;34.90;;;;;;;;;;5054109;28;20041;-73
2023/02/08 00:35:04;;;;;;;65.47;35.25;;;;;;;;;;5054542;28;20342;-74
2023/02/08 00:37:49;;;;;;;64.28;33.50;;;;;;;;;;5054602;28;20115;-75
2023/02/08 00:40:35;;;;;;;65.70;34.42;;;;;;;;;;5054832;28;20036;-74
2023/02/08 00:43:21;;;;;;;67.00;35.47;;;;;;;;;;5055245;28;20021;-74
2023/02/08 00:46:08;;;;;;;61.78;34.13;;;;;;;;;;5053943;28;20055;-73
2023/02/08 00:48:53;;;;;;;67.00;35.60;;;;;;;;;;5062092;28;20060;-74
2023/02/08 00:51:39;;;;;;;64.50;34.58;;;;;;;;;;5058710;28;20464;-73
2023/02/08 00:54:25;;;;;;;68.50;35.80;;;;;;;;;;5054746;28;20040;-75
2023/02/08 00:57:13;;;;;;;68.82;35.20;;;;;;;;;;5054710;28;20135;-74
2023/02/08 00:59:58;;;;;;;65.50;36.63;;;;;;;;;;5055870;28;20017;-75
2023/02/08 01:02:44;;;;;;;70.03;35.85;;;;;;;;;;5065075;28;20441;-72
2023/02/08 01:05:29;;;;;;;69.13;36.40;;;;;;;;;;5059146;28;20111;-73
2023/02/08 01:08:15;;;;;;;70.05;36.65;;;;;;;;;;5061888;28;20013;-74
2023/02/08 01:11:03;;;;;;;76.20;40.00;;;;;;;;;;5056866;28;20521;-73
2023/02/08 01:13:48;;;;;;;70.47;37.05;;;;;;;;;;5062789;28;20082;-74
2023/02/08 01:16:36;;;;;;;70.13;36.92;;;;;;;;;;5070306;28;20021;-75
2023/02/08 01:19:21;;;;;;;71.68;37.70;;;;;;;;;;5057380;28;20099;-73
2023/02/08 01:22:07;;;;;;;76.72;39.42;;;;;;;;;;5055512;28;20445;-73
2023/02/08 01:24:52;;;;;;;67.63;36.72;;;;;;;;;;5070825;28;20035;-72
2023/02/08 01:27:38;;;;;;;71.70;36.53;;;;;;;;;;5056589;28;20502;-74
2023/02/08 01:30:24;;;;;;;69.20;36.53;;;;;;;;;;5057006;28;20076;-73
2023/02/08 01:33:09;;;;;;;69.35;36.00;;;;;;;;;;5059396;28;20115;-73
2023/02/08 01:35:55;;;;;;;71.93;37.22;;;;;;;;;;5061289;28;20063;-74
2023/02/08 01:38:41;;;;;;;67.93;36.20;;;;;;;;;;5054997;28;20025;-74
2023/02/08 01:41:29;;;;;;;74.90;38.00;;;;;;;;;;5053927;28;20031;-73
2023/02/08 01:44:16;;;;;;;68.50;36.30;;;;;;;;;;5055166;28;20346;-74
2023/02/08 01:47:02;;;;;;;63.58;34.72;;;;;;;;;;5055022;28;20033;-72
2023/02/08 01:49:48;;;;;;;64.80;34.85;;;;;;;;;;5060708;28;20021;-75
2023/02/08 01:52:33;;;;;;;65.45;34.67;;;;;;;;;;5065233;28;20101;-73
2023/02/08 01:55:41;;;;;;;69.50;35.63;;;;;;;;;;5067578;28;20047;-74
2023/02/08 01:58:28;;;;;;;64.00;33.13;;;;;;;;;;5061995;28;20450;-74
2023/02/08 02:01:14;;;;;;;60.53;33.35;;;;;;;;;;5054955;28;20083;-73
2023/02/08 02:04:02;;;;;;;65.72;34.63;;;;;;;;;;5055475;28;20112;-74
2023/02/08 02:06:50;;;;;;;63.33;33.85;;;;;;;;;;5054677;28;20087;-74
2023/02/08 02:09:38;;;;;;;62.60;33.00;;;;;;;;;;5053106;28;20310;-74
2023/02/08 02:12:24;;;;;;;60.10;29.73;;;;;;;;;;5053868;28;20346;-74
2023/02/08 02:15:10;;;;;;;46.83;25.10;;;;;;;;;;5055087;28;20021;-74
2023/02/08 02:17:56;;;;;;;41.78;22.88;;;;;;;;;;5054818;28;20025;-73
2023/02/08 02:20:51;;;;;;;39.38;21.98;;;;;;;;;;5055131;28;20025;-74
2023/02/08 02:23:43;;;;;;;40.70;20.92;;;;;;;;;;5059739;28;20127;-73
2023/02/08 02:26:44;;;;;;;35.78;19.10;;;;;;;;;;5057968;28;20048;-74
2023/02/08 02:29:30;;;;;;;32.03;18.20;;;;;;;;;;5057676;28;20021;-73
2023/02/08 02:32:24;;;;;;;36.42;18.23;;;;;;;;;;5057470;28;20446;-72
2023/02/08 02:35:10;;;;;;;37.97;19.20;;;;;;;;;;5057060;28;20075;-73
2023/02/08 02:38:07;;;;;;;35.47;18.45;;;;;;;;;;5057399;28;20025;-72
2023/02/08 02:41:01;;;;;;;33.50;17.98;;;;;;;;;;5058047;28;20441;-72
2023/02/08 02:43:53;;;;;;;28.88;16.13;;;;;;;;;;5058669;28;20095;-73
2023/02/08 02:46:40;;;;;;;29.00;15.02;;;;;;;;;;5057555;28;20021;-72
2023/02/08 02:49:38;;;;;;;27.05;14.10;;;;;;;;;;5056563;28;20360;-72
2023/02/08 02:52:35;;;;;;;24.23;12.88;;;;;;;;;;5058733;28;20040;-74
2023/02/08 02:55:22;;;;;;;21.35;12.38;;;;;;;;;;5058175;28;20086;-74
2023/02/08 02:58:10;;;;;;;23.42;12.27;;;;;;;;;;5056791;28;20021;-73
2023/02/08 03:00:57;;;;;;;23.60;12.52;;;;;;;;;;5057759;28;20025;-74
2023/02/08 03:03:42;;;;;;;22.55;12.43;;;;;;;;;;5057661;28;20349;-72
2023/02/08 03:06:46;;;;;;;23.02;12.45;;;;;;;;;;5058291;28;20029;-73
2023/02/08 03:09:43;;;;;;;23.55;12.02;;;;;;;;;;5057845;28;20082;-74
2023/02/08 03:12:35;;;;;;;26.23;12.52;;;;;;;;;;5056931;28;20056;-73
2023/02/08 03:15:32;;;;;;;25.00;13.00;;;;;;;;;;5056770;28;20107;-72
2023/02/08 03:18:29;;;;;;;24.70;11.73;;;;;;;;;;5056779;28;20024;-73
2023/02/08 03:21:23;;;;;;;23.00;12.55;;;;;;;;;;5056813;28;20342;-74
2023/02/08 03:24:15;;;;;;;25.27;12.73;;;;;;;;;;5057936;28;20349;-74
2023/02/08 03:27:07;;;;;;;21.27;12.07;;;;;;;;;;5056524;28;20021;-74
2023/02/08 03:30:13;;;;;;;23.00;12.77;;;;;;;;;;5057674;28;20444;-73
2023/02/08 03:33:05;;;;;;;23.45;12.45;;;;;;;;;;5056487;28;20052;-74
2023/02/08 03:36:01;;;;;;;22.92;12.95;;;;;;;;;;5055804;28;20425;-73
2023/02/08 03:38:47;;;;;;;24.08;12.60;;;;;;;;;;5055928;28;20025;-73
2023/02/08 03:41:35;;;;;;;26.83;13.65;;;;;;;;;;5057194;28;20028;-74
2023/02/08 03:44:24;;;;;;;23.77;12.38;;;;;;;;;;5056528;28;20032;-74
2023/02/08 03:47:19;;;;;;;27.40;13.25;;;;;;;;;;5056090;28;20424;-74
2023/02/08 03:50:07;;;;;;;22.95;12.75;;;;;;;;;;5055302;28;20048;-74
2023/02/08 03:52:52;;;;;;;24.80;12.98;;;;;;;;;;5055664;28;20025;-74
2023/02/08 03:55:39;;;;;;;21.50;11.65;;;;;;;;;;5055739;28;20350;-74
2023/02/08 03:58:31;;;;;;;21.45;11.77;;;;;;;;;;5055980;28;20017;-73
2023/02/08 04:01:20;;;;;;;24.40;12.20;;;;;;;;;;5056601;28;20335;-73
2023/02/08 04:04:09;;;;;;;19.92;11.13;;;;;;;;;;5056074;28;20442;-73
2023/02/08 04:06:54;;;;;;;20.27;10.88;;;;;;;;;;5057172;28;20345;-74
2023/02/08 04:09:40;;;;;;;23.55;11.90;;;;;;;;;;5056168;28;20401;-75
2023/02/08 04:12:26;;;;;;;22.25;11.90;;;;;;;;;;5056574;28;20387;-74
2023/02/08 04:15:11;;;;;;;24.20;11.98;;;;;;;;;;5057047;28;20035;-74
2023/02/08 04:17:57;;;;;;;22.33;11.40;;;;;;;;;;5056345;28;20410;-73
2023/02/08 04:20:42;;;;;;;21.42;11.57;;;;;;;;;;5055564;28;20021;-73
2023/02/08 04:23:28;;;;;;;21.55;11.05;;;;;;;;;;5056392;28;20082;-74
2023/02/08 04:26:13;;;;;;;23.67;10.98;;;;;;;;;;5055070;28;20090;-72
2023/02/08 04:28:59;;;;;;;24.17;11.55;;;;;;;;;;5054990;28;20396;-74
2023/02/08 04:31:45;;;;;;;23.33;11.15;;;;;;;;;;5054960;28;20077;-73
2023/02/08 04:34:30;;;;;;;19.48;11.10;;;;;;;;;;5056171;28;20032;-74
2023/02/08 04:37:16;;;;;;;19.95;11.05;;;;;;;;;;5056147;28;20187;-74
2023/02/08 04:40:02;;;;;;;22.00;11.52;;;;;;;;;;5054349;28;20171;-73
2023/02/08 04:42:47;;;;;;;18.75;10.73;;;;;;;;;;5056076;28;20464;-75
2023/02/08 04:45:33;;;;;;;20.63;10.90;;;;;;;;;;5056112;28;20031;-73
2023/02/08 04:48:19;;;;;;;22.17;10.82;;;;;;;;;;5055760;28;20116;-73
2023/02/08 04:51:05;;;;;;;18.27;10.07;;;;;;;;;;5056639;28;20028;-74
2023/02/08 04:53:50;;;;;;;22.85;10.75;;;;;;;;;;5056347;28;20345;-75
2023/02/08 04:56:36;;;;;;;23.00;11.80;;;;;;;;;;5056356;28;20033;-72
2023/02/08 04:59:21;;;;;;;23.83;11.85;;;;;;;;;;5055916;28;20452;-74
2023/02/08 05:02:07;;;;;;;20.33;11.13;;;;;;;;;;5054595;28;20509;-73
2023/02/08 05:04:53;;;;;;;26.05;12.02;;;;;;;;;;5055972;28;20021;-75
2023/02/08 05:07:38;;;;;;;21.75;10.52;;;;;;;;;;5055772;28;20017;-75
2023/02/08 05:10:24;;;;;;;22.85;12.07;;;;;;;;;;5056302;28;20369;-75
2023/02/08 05:13:10;;;;;;;20.02;10.40;;;;;;;;;;5056312;28;20043;-74
2023/02/08 05:15:55;;;;;;;20.85;10.88;;;;;;;;;;5053961;28;20029;-75
2023/02/08 05:18:41;;;;;;;17.70;9.98;;;;;;;;;;5055131;28;20029;-74
2023/02/08 05:21:27;;;;;;;19.60;11.10;;;;;;;;;;5054178;28;20017;-75
2023/02/08 05:24:12;;;;;;;22.58;11.30;;;;;;;;;;5054824;28;20453;-74
2023/02/08 05:26:58;;;;;;;19.77;11.25;;;;;;;;;;5055749;28;20035;-74
2023/02/08 05:29:43;;;;;;;25.05;12.10;;;;;;;;;;5055492;28;20033;-74
2023/02/08 05:32:29;;;;;;;23.73;11.45;;;;;;;;;;5054602;28;20199;-73
2023/02/08 05:35:15;;;;;;;21.05;11.23;;;;;;;;;;5056007;28;20029;-74
2023/02/08 05:38:00;;;;;;;22.42;11.90;;;;;;;;;;5054972;28;20128;-75
2023/02/08 05:40:46;;;;;;;25.08;12.63;;;;;;;;;;5054853;28;20063;-75
2023/02/08 05:43:31;;;;;;;26.08;13.18;;;;;;;;;;5053079;28;20025;-75
2023/02/08 05:46:17;;;;;;;23.30;12.38;;;;;;;;;;5055057;28;20017;-75
2023/02/08 05:49:03;;;;;;;25.20;13.25;;;;;;;;;;5054091;28;20031;-74
2023/02/08 05:51:49;;;;;;;25.77;13.32;;;;;;;;;;5054943;28;20028;-75
2023/02/08 05:54:34;;;;;;;28.73;14.48;;;;;;;;;;5054774;28;20068;-74
2023/02/08 05:57:20;;;;;;;27.40;14.55;;;;;;;;;;5055996;28;20048;-74
2023/02/08 06:00:06;;;;;;;27.58;14.45;;;;;;;;;;5057334;28;20357;-74
2023/02/08 06:02:52;;;;;;;30.08;15.40;;;;;;;;;;5057511;28;20100;-75
2023/02/08 06:05:38;;;;;;;28.40;15.23;;;;;;;;;;5059036;28;20036;-74
2023/02/08 06:08:24;;;;;;;30.70;14.95;;;;;;;;;;5057422;28;20028;-74
2023/02/08 06:11:10;;;;;;;31.95;15.70;;;;;;;;;;5056672;28;20025;-75
2023/02/08 06:13:55;;;;;;;28.35;14.73;;;;;;;;;;5058690;28;20017;-74
2023/02/08 06:16:41;;;;;;;31.80;15.88;;;;;;;;;;5057484;28;20438;-75
2023/02/08 06:19:26;;;;;;;29.48;14.85;;;;;;;;;;5059485;28;20029;-75
2023/02/08 06:22:12;;;;;;;23.98;12.68;;;;;;;;;;5058941;28;20039;-74
2023/02/08 06:24:57;;;;;;;28.63;13.98;;;;;;;;;;5057510;28;20098;-75
2023/02/08 06:27:43;;;;;;;30.08;14.93;;;;;;;;;;5058574;28;20429;-74
2023/02/08 06:30:29;;;;;;;30.60;14.88;;;;;;;;;;5059112;28;20455;-74
2023/02/08 06:33:15;;;;;;;27.80;14.38;;;;;;;;;;5057256;28;20041;-74
2023/02/08 06:36:00;;;;;;;29.98;14.85;;;;;;;;;;5058602;28;20464;-72
2023/02/08 06:38:46;;;;;;;30.90;15.20;;;;;;;;;;5057423;28;20067;-74
2023/02/08 06:41:32;;;;;;;29.70;15.23;;;;;;;;;;5056830;28;20037;-74
2023/02/08 06:44:17;;;;;;;27.80;14.10;;;;;;;;;;5057633;28;20091;-75
2023/02/08 06:47:03;;;;;;;29.80;13.77;;;;;;;;;;5058056;28;20090;-73
2023/02/08 06:49:49;;;;;;;27.15;12.93;;;;;;;;;;5058798;28;20028;-73
2023/02/08 06:52:34;;;;;;;25.63;13.05;;;;;;;;;;5058006;28;20032;-74
2023/02/08 06:55:20;;;;;;;26.25;12.90;;;;;;;;;;5058672;28;20032;-74
2023/02/08 06:58:06;;;;;;;25.83;12.63;;;;;;;;;;5057193;28;20123;-76
2023/02/08 07:00:51;;;;;;;27.15;12.43;;;;;;;;;;5057709;28;20180;-75
2023/02/08 07:03:37;;;;;;;24.38;12.43;;;;;;;;;;5057478;28;20021;-75
2023/02/08 07:06:23;;;;;;;21.83;11.52;;;;;;;;;;5064356;28;20017;-74
2023/02/08 07:09:08;;;;;;;23.77;12.07;;;;;;;;;;5060711;28;20025;-75
2023/02/08 07:11:54;;;;;;;22.83;11.80;;;;;;;;;;5058375;28;20087;-74
2023/02/08 07:14:41;;;;;;;23.67;12.02;;;;;;;;;;5058253;28;20009;-75
2023/02/08 07:17:26;;;;;;;24.17;11.98;;;;;;;;;;5060067;28;20034;-74
2023/02/08 07:20:12;;;;;;;23.52;12.07;;;;;;;;;;5068003;28;20105;-73
2023/02/08 07:22:59;;;;;;;20.73;11.55;;;;;;;;;;5067486;28;20043;-76
2023/02/08 07:25:44;;;;;;;23.42;11.93;;;;;;;;;;5060451;28;20025;-74
2023/02/08 07:28:30;;;;;;;26.20;13.50;;;;;;;;;;5059492;28;20059;-74
2023/02/08 07:31:16;;;;;;;26.52;12.40;;;;;;;;;;5057631;28;20017;-75
2023/02/08 07:34:02;;;;;;;25.83;12.18;;;;;;;;;;5057579;28;20052;-76
2023/02/08 07:36:48;;;;;;;23.23;12.43;;;;;;;;;;5057636;28;20385;-75
2023/02/08 07:39:33;;;;;;;22.48;11.55;;;;;;;;;;5056333;28;20028;-77
2023/02/08 07:42:19;;;;;;;22.75;12.45;;;;;;;;;;5056559;28;20437;-76
2023/02/08 07:45:05;;;;;;;25.00;11.57;;;;;;;;;;5057309;28;20028;-76
2023/02/08 07:47:50;;;;;;;20.92;10.55;;;;;;;;;;5056726;28;20021;-75
2023/02/08 07:50:36;;;;;;;19.15;9.85;;;;;;;;;;5055981;28;20021;-75
2023/02/08 07:53:21;;;;;;;17.33;9.80;;;;;;;;;;5055928;28;20404;-75
2023/02/08 07:56:09;;;;;;;17.90;10.02;;;;;;;;;;5056045;28;20041;-76
2023/02/08 07:58:54;;;;;;;19.80;10.55;;;;;;;;;;5056804;28;20418;-76
2023/02/08 08:01:40;;;;;;;19.80;10.23;;;;;;;;;;5056688;28;20028;-76
2023/02/08 08:04:25;;;;;;;19.73;9.95;;;;;;;;;;5065438;28;20021;-74
2023/02/08 08:07:11;;;;;;;19.25;9.88;;;;;;;;;;5056295;28;20028;-74
2023/02/08 08:09:57;;;;;;;20.83;9.95;;;;;;;;;;5063203;28;20017;-74
2023/02/08 08:12:42;;;;;;;18.25;9.90;;;;;;;;;;5063019;28;20028;-75
2023/02/08 08:15:28;;;;;;;19.73;9.23;;;;;;;;;;5056345;28;20390;-75
2023/02/08 08:18:13;;;;;;;18.05;9.77;;;;;;;;;;5055956;28;20020;-75
2023/02/08 08:20:59;;;;;;;19.02;10.05;;;;;;;;;;5055474;28;20017;-75
2023/02/08 08:23:45;;;;;;;18.58;9.38;;;;;;;;;;5057208;28;20041;-75
2023/02/08 08:26:30;;;;;;;17.50;9.32;;;;;;;;;;5055332;28;20016;-75
2023/02/08 08:29:16;;;;;;;19.33;9.85;;;;;;;;;;5055588;28;20100;-74
2023/02/08 08:32:03;;;;;;;19.55;10.27;;;;;;;;;;5054739;28;20128;-75
2023/02/08 08:34:48;;;;;;;20.88;10.13;;;;;;;;;;5054743;28;20025;-75
2023/02/08 08:37:34;;;;;;;18.00;9.73;;;;;;;;;;5055346;28;20024;-76
2023/02/08 08:40:20;;;;;;;22.83;10.45;;;;;;;;;;5055766;28;20020;-74
2023/02/08 08:43:05;;;;;;;21.25;9.27;;;;;;;;;;5056463;28;20495;-74
2023/02/08 08:45:51;;;;;;;23.35;9.52;;;;;;;;;;5055443;28;20021;-75
2023/02/08 08:48:39;;;;;;;20.17;10.77;;;;;;;;;;5054642;28;20024;-73
2023/02/08 08:51:25;;;;;;;21.00;10.82;;;;;;;;;;5055124;28;20039;-75
2023/02/08 08:54:10;;;;;;;19.35;10.35;;;;;;;;;;5060687;28;20032;-75
2023/02/08 08:56:56;;;;;;;23.73;11.55;;;;;;;;;;5057152;28;20017;-74
2023/02/08 08:59:42;;;;;;;54.58;22.45;;;;;;;;;;5058607;28;20032;-74
2023/02/08 09:02:27;;;;;;;47.70;21.70;;;;;;;;;;5056340;28;20033;-74
2023/02/08 09:05:13;;;;;;;24.83;12.25;;;;;;;;;;5056301;28;20098;-75
2023/02/08 09:08:00;;;;;;;20.65;10.88;;;;;;;;;;5056294;28;20100;-74
2023/02/08 09:10:47;;;;;;;19.60;9.80;;;;;;;;;;5055394;28;20489;-76
2023/02/08 09:13:32;;;;;;;23.77;11.60;;;;;;;;;;5054673;28;20361;-74
2023/02/08 09:16:18;;;;;;;22.35;11.10;;;;;;;;;;5051427;28;20059;-75
2023/02/08 09:19:27;;;;;;;21.88;11.07;;;;;;;;;;5054334;28;20082;-74
2023/02/08 09:22:13;;;;;;;21.02;10.93;;;;;;;;;;5053651;28;20373;-75
2023/02/08 09:25:00;;;;;;;25.58;12.63;;;;;;;;;;5053755;28;20159;-75
2023/02/08 09:27:46;;;;;;;20.17;11.48;;;;;;;;;;5054352;28;20025;-75
2023/02/08 09:30:32;;;;;;;21.33;11.48;;;;;;;;;;5054847;28;20119;-74
2023/02/08 09:33:17;;;;;;;21.35;10.60;;;;;;;;;;5053420;28;20051;-75
2023/02/08 09:36:03;;;;;;;20.80;10.98;;;;;;;;;;5053655;28;20116;-74
2023/02/08 09:38:50;;;;;;;23.10;11.80;;;;;;;;;;5054182;28;20028;-75
2023/02/08 09:41:43;;;;;;;20.98;11.13;;;;;;;;;;5054354;28;20028;-73
2023/02/08 09:44:48;;;;;;;21.20;11.68;;;;;;;;;;5054128;28;20024;-74
2023/02/08 09:47:39;;;;;;;23.55;12.57;;;;;;;;;;5054372;28;20355;-75
2023/02/08 09:50:33;;;;;;;21.75;11.80;;;;;;;;;;5054004;28;20448;-75
2023/02/08 09:53:35;;;;;;;22.80;11.77;;;;;;;;;;5054362;28;20021;-74
2023/02/08 09:56:25;;;;;;;21.65;11.95;;;;;;;;;;5053561;28;20036;-75
2023/02/08 09:59:15;;;;;;;22.80;11.82;;;;;;;;;;5055458;28;20362;-75
2023/02/08 10:02:19;;;;;;;24.27;12.40;;;;;;;;;;5052954;28;20082;-75
2023/02/08 10:05:14;;;;;;;22.60;11.90;;;;;;;;;;5053464;28;20045;-75
2023/02/08 10:08:00;;;;;;;24.55;12.05;;;;;;;;;;5056628;28;20112;-74
2023/02/08 10:10:52;;;;;;;25.20;12.27;;;;;;;;;;5054895;28;20044;-75
2023/02/08 10:13:44;;;;;;;24.85;12.45;;;;;;;;;;5054298;28;20032;-74
2023/02/08 10:16:29;;;;;;;24.88;12.98;;;;;;;;;;5053082;28;20361;-74
2023/02/08 10:19:33;;;;;;;27.88;13.43;;;;;;;;;;5053588;28;20104;-73
2023/02/08 10:22:19;;;;;;;29.92;14.00;;;;;;;;;;5044403;28;20049;-73
2023/02/08 10:25:23;;;;;;;30.90;15.30;;;;;;;;;;5053375;28;20413;-74
2023/02/08 10:28:24;;;;;;;24.33;12.20;;;;;;;;;;5053714;28;20021;-74
2023/02/08 10:31:16;;;;;;;24.42;13.32;;;;;;;;;;5053560;28;20152;-74
2023/02/08 10:34:11;;;;;;;27.48;13.45;;;;;;;;;;5053211;28;20322;-74
2023/02/08 10:36:56;;;;;;;24.83;11.93;;;;;;;;;;5053344;28;20506;-74
2023/02/08 10:39:42;;;;;;;30.15;16.13;;;;;;;;;;5053602;28;20178;-74
2023/02/08 10:42:29;;;;;;;31.05;14.00;;;;;;;;;;5054158;28;20017;-73
2023/02/08 10:45:14;;;;;;;24.58;13.70;;;;;;;;;;5057189;28;20107;-74
2023/02/08 10:48:20;;;;;;;27.77;15.25;;;;;;;;;;5057167;28;20128;-74
2023/02/08 10:51:09;;;;;;;26.25;13.60;;;;;;;;;;5056211;28;20014;-74
2023/02/08 10:53:55;;;;;;;26.58;13.32;;;;;;;;;;5056671;28;20017;-74
2023/02/08 10:56:49;;;;;;;26.05;13.10;;;;;;;;;;5057199;28;20509;-74
2023/02/08 10:59:48;;;;;;;29.15;14.77;;;;;;;;;;5057102;28;20040;-74
2023/02/08 11:02:34;;;;;;;28.00;14.05;;;;;;;;;;5057647;28;20032;-74
2023/02/08 11:05:30;;;;;;;28.08;14.20;;;;;;;;;;5062219;28;20076;-74
2023/02/08 11:08:21;;;;;;;26.50;14.10;;;;;;;;;;5072258;28;20041;-74
2023/02/08 11:11:08;;;;;;;27.83;15.35;;;;;;;;;;5069180;28;20029;-66
2023/02/08 11:14:14;;;;;;;26.10;14.98;;;;;;;;;;5057928;28;20158;-77
2023/02/08 11:17:03;;;;;;;31.60;13.98;;;;;;;;;;5069333;28;20400;-76
2023/02/08 11:19:49;;;;;;;31.90;15.43;;;;;;;;;;5073457;28;20017;-76
2023/02/08 11:22:35;;;;;;;30.27;14.45;;;;;;;;;;5075121;28;20021;-76
2023/02/08 11:25:37;;;;;;;28.00;14.30;;;;;;;;;;5074967;28;20020;-74
2023/02/08 11:28:28;;;;;;;31.80;15.82;;;;;;;;;;5077978;28;20055;-75
2023/02/08 11:31:18;;;;;;;30.48;15.98;;;;;;;;;;5075441;28;20441;-77
2023/02/08 11:34:04;;;;;;;30.95;15.27;;;;;;;;;;5077115;28;20051;-77
2023/02/08 11:36:50;;;;;;;27.15;14.75;;;;;;;;;;5077765;28;20038;-76
2023/02/08 11:39:36;;;;;;;29.35;14.73;;;;;;;;;;5077760;28;20377;-76
2023/02/08 11:42:23;;;;;;;28.02;14.95;;;;;;;;;;5086018;28;20398;-77
2023/02/08 11:45:18;;;;;;;29.67;14.43;;;;;;;;;;5089741;28;20021;-75
2023/02/08 11:48:05;;;;;;;28.63;15.07;;;;;;;;;;5090240;28;20028;-77
2023/02/08 11:50:59;;;;;;;29.52;15.73;;;;;;;;;;5088751;28;20076;-75
2023/02/08 11:53:46;;;;;;;26.83;14.65;;;;;;;;;;5089100;28;20028;-79
2023/02/08 11:56:33;;;;;;;31.77;14.82;;;;;;;;;;5090134;28;20023;-77
2023/02/08 11:59:20;;;;;;;31.45;14.48;;;;;;;;;;5085927;28;20025;-76
2023/02/08 12:02:35;;;;;;;29.42;15.40;;;;;;;;;;5080696;28;20020;-77
2023/02/08 12:05:24;;;;;;;27.98;14.73;;;;;;;;;;5072163;28;20032;-77
2023/02/08 12:08:17;;;;;;;27.77;14.60;;;;;;;;;;5078024;28;20021;-77
2023/02/08 12:11:14;;;;;;;29.15;14.93;;;;;;;;;;5076289;28;20086;-76
2023/02/08 12:14:00;;;;;;;28.42;15.13;;;;;;;;;;5076577;28;20403;-77
2023/02/08 12:16:52;;;;;;;29.77;15.13;;;;;;;;;;5076505;28;20100;-76
2023/02/08 12:19:40;;;;;;;30.88;16.38;;;;;;;;;;5075777;28;20020;-77
2023/02/08 12:22:27;;;;;;;27.35;14.93;;;;;;;;;;5075726;28;20024;-76
2023/02/08 12:25:20;;;;;;;28.25;14.98;;;;;;;;;;5075185;28;20063;-75
2023/02/08 12:28:17;;;;;;;28.50;15.05;;;;;;;;;;5076201;28;20016;-77
2023/02/08 12:31:26;;;;;;;27.80;15.05;;;;;;;;;;5086191;28;20365;-74
2023/02/08 12:34:18;;;;;;;30.73;15.35;;;;;;;;;;5086557;28;20102;-76
2023/02/08 12:43:35;;;;;;;33.38;15.25;;;;;;;;;;5079168;28;20040;-76
2023/02/08 12:46:35;;;;;;;28.40;15.07;;;;;;;;;;5080506;28;20025;-76
2023/02/08 12:49:30;;;;;;;26.83;14.88;;;;;;;;;;5077664;28;20020;-77
2023/02/08 12:52:40;;;;;;;26.48;14.45;;;;;;;;;;5078049;28;20066;-77
2023/02/08 12:55:36;;;;;;;29.38;14.52;;;;;;;;;;5075990;28;20047;-75
2023/02/08 12:58:29;;;;;;;29.80;15.38;;;;;;;;;;5073927;28;20024;-77
2023/02/08 13:01:19;;;;;;;29.13;14.85;;;;;;;;;;5073588;28;20020;-77
2023/02/08 13:04:09;;;;;;;27.45;15.50;;;;;;;;;;5073897;28;20107;-76
2023/02/08 13:06:57;;;;;;;28.27;14.60;;;;;;;;;;5073100;28;20437;-77
2023/02/08 13:09:53;;;;;;;26.20;13.50;;;;;;;;;;5074460;28;20057;-76
2023/02/08 13:12:42;;;;;;;30.52;15.93;;;;;;;;;;5086471;28;20044;-76
2023/02/08 13:15:40;;;;;;;27.88;14.68;;;;;;;;;;5077940;28;20016;-77
2023/02/08 13:18:30;;;;;;;26.55;13.98;;;;;;;;;;5074459;28;20461;-77
2023/02/08 13:21:19;;;;;;;28.05;14.40;;;;;;;;;;5074053;28;20020;-78
2023/02/08 13:24:06;;;;;;;25.40;13.07;;;;;;;;;;5074324;28;20072;-76
2023/02/08 13:26:52;;;;;;;25.75;14.48;;;;;;;;;;5073864;28;20052;-76
2023/02/08 13:29:37;;;;;;;31.27;15.32;;;;;;;;;;5047995;28;20031;-76
2023/02/08 13:32:29;;;;;;;26.40;15.05;;;;;;;;;;5054105;28;20041;-77
2023/02/08 13:35:28;;;;;;;27.50;14.40;;;;;;;;;;5053541;28;20079;-76
2023/02/08 13:38:43;;;;;;;28.35;14.25;;;;;;;;;;5053895;28;20392;-76
2023/02/08 13:41:30;;;;;;;28.45;15.55;;;;;;;;;;5040345;28;20040;-76
2023/02/08 13:44:18;;;;;;;28.30;14.50;;;;;;;;;;5054960;28;20082;-76
2023/02/08 13:47:04;;;;;;;24.30;13.65;;;;;;;;;;5056109;28;20021;-77
2023/02/08 13:49:53;;;;;;;30.35;15.38;;;;;;;;;;5054053;28;20028;-76
2023/02/08 13:52:46;;;;;;;26.80;13.95;;;;;;;;;;5055045;28;20028;-77
2023/02/08 13:55:39;;;;;;;26.48;13.00;;;;;;;;;;5054465;28;20032;-76
2023/02/08 13:58:28;;;;;;;27.10;14.10;;;;;;;;;;5054411;28;20036;-77
2023/02/08 14:01:17;;;;;;;26.02;14.30;;;;;;;;;;5035805;28;20109;-77
2023/02/08 14:04:11;;;;;;;27.48;14.73;;;;;;;;;;5045387;28;20036;-76
2023/02/08 14:07:03;;;;;;;27.58;14.50;;;;;;;;;;5053867;28;20060;-77
2023/02/08 14:10:01;;;;;;;29.92;15.25;;;;;;;;;;5054170;28;20029;-76
2023/02/08 14:12:59;;;;;;;22.90;12.93;;;;;;;;;;5056712;28;20029;-76
2023/02/08 14:15:44;;;;;;;25.30;14.23;;;;;;;;;;5053850;28;20059;-76
2023/02/08 14:18:30;;;;;;;26.50;13.77;;;;;;;;;;5056698;28;20029;-76
2023/02/08 14:21:28;;;;;;;22.35;12.57;;;;;;;;;;5057861;28;20021;-77
2023/02/08 14:24:16;;;;;;;26.90;13.18;;;;;;;;;;5057800;28;20089;-77
2023/02/08 14:27:07;;;;;;;22.38;11.65;;;;;;;;;;5057204;28;20106;-76
2023/02/08 14:29:58;;;;;;;23.55;13.35;;;;;;;;;;5058038;28;20010;-77
2023/02/08 14:32:46;;;;;;;20.67;11.68;;;;;;;;;;5056997;28;20051;-77
2023/02/08 14:35:35;;;;;;;22.67;12.30;;;;;;;;;;5057285;28;20017;-78
2023/02/08 14:38:21;;;;;;;28.38;13.05;;;;;;;;;;5056840;28;20025;-77
2023/02/08 14:41:06;;;;;;;27.17;13.40;;;;;;;;;;5057026;28;20082;-77
2023/02/08 14:43:52;;;;;;;28.85;14.68;;;;;;;;;;5057534;28;20100;-74
2023/02/08 14:46:42;;;;;;;29.50;13.63;;;;;;;;;;5056938;28;20091;-76
2023/02/08 14:49:34;;;;;;;43.92;22.88;;;;;;;;;;5057092;28;20029;-77
2023/02/08 14:52:24;;;;;;;37.30;18.38;;;;;;;;;;5049943;28;20017;-75
2023/02/08 14:55:16;;;;;;;30.58;15.52;;;;;;;;;;5053049;28;20092;-78
2023/02/08 14:58:04;;;;;;;31.95;15.63;;;;;;;;;;5057963;28;20020;-78
2023/02/08 15:00:50;;;;;;;30.17;14.48;;;;;;;;;;5056623;28;20025;-78
2023/02/08 15:03:38;;;;;;;29.90;14.38;;;;;;;;;;5056837;28;20103;-79
2023/02/08 15:06:36;;;;;;;29.73;13.70;;;;;;;;;;5058442;28;20407;-78
2023/02/08 15:09:23;;;;;;;29.73;12.95;;;;;;;;;;5057536;28;20043;-77
2023/02/08 15:12:28;;;;;;;26.40;14.07;;;;;;;;;;5058268;28;20357;-78
2023/02/08 15:15:33;;;;;;;30.77;14.82;;;;;;;;;;5056565;28;20096;-77
2023/02/08 15:18:24;;;;;;;24.90;11.85;;;;;;;;;;5056427;28;20045;-77
2023/02/08 15:21:16;;;;;;;26.27;11.80;;;;;;;;;;5056517;28;20029;-77
2023/02/08 15:24:02;;;;;;;27.77;12.57;;;;;;;;;;5056630;28;20373;-76
2023/02/08 15:26:48;;;;;;;31.13;13.35;;;;;;;;;;5056744;28;20028;-77
2023/02/08 15:29:38;;;;;;;24.08;11.98;;;;;;;;;;5056685;28;20476;-77
2023/02/08 15:32:25;;;;;;;20.58;10.98;;;;;;;;;;5057757;28;20120;-78
2023/02/08 15:35:14;;;;;;;22.40;10.82;;;;;;;;;;5056746;28;20020;-77
2023/02/08 15:38:01;;;;;;;22.58;11.02;;;;;;;;;;5045067;28;20027;-76
2023/02/08 15:41:04;;;;;;;23.27;10.93;;;;;;;;;;5036798;28;20036;-79
2023/02/08 15:43:50;;;;;;;22.85;10.60;;;;;;;;;;5037633;28;20472;-77
2023/02/08 15:46:39;;;;;;;26.45;11.65;;;;;;;;;;5037157;28;20369;-77
2023/02/08 15:49:32;;;;;;;22.60;10.88;;;;;;;;;;5040597;28;20044;-77
2023/02/08 15:52:19;;;;;;;22.00;10.15;;;;;;;;;;5046320;28;20024;-78
2023/02/08 15:55:07;;;;;;;28.35;13.30;;;;;;;;;;5055028;28;20100;-76
2023/02/08 15:58:06;;;;;;;21.30;11.35;;;;;;;;;;5055457;28;20025;-78
2023/02/08 16:00:51;;;;;;;27.05;11.70;;;;;;;;;;5055388;28;20029;-78
2023/02/08 16:03:37;;;;;;;22.10;11.57;;;;;;;;;;5056140;28;20072;-78
2023/02/08 16:06:27;;;;;;;21.40;11.75;;;;;;;;;;5055964;28;20074;-77
2023/02/08 16:09:16;;;;;;;26.17;12.65;;;;;;;;;;5060380;28;20061;-76
2023/02/08 16:12:04;;;;;;;26.05;12.23;;;;;;;;;;5055213;28;20013;-78
2023/02/08 16:14:50;;;;;;;26.35;11.90;;;;;;;;;;5056102;28;20025;-77
2023/02/08 16:17:43;;;;;;;21.60;11.63;;;;;;;;;;5055506;28;20461;-79
2023/02/08 16:20:31;;;;;;;26.13;12.60;;;;;;;;;;5055665;28;20060;-77
2023/02/08 16:23:25;;;;;;;28.77;13.00;;;;;;;;;;5054850;28;20059;-77
2023/02/08 16:26:22;;;;;;;27.90;13.02;;;;;;;;;;5055750;28;20079;-79
2023/02/08 16:29:17;;;;;;;30.27;13.25;;;;;;;;;;5055104;28;20020;-78
2023/02/08 16:32:07;;;;;;;29.48;13.27;;;;;;;;;;5054814;28;20435;-77